Aérodrome :
LOGIN :

S'inscrire | Disclaimer

   EN    FR    IT 

 










Légende :    VFR   VFR Marginal   IFR   IFR Intensif   IFR Très Intensif
Visi : 
Plafond : 
>= 8 km
>= 3000ft
5 à 8 km
1000 à 3000 ft
1500m à 5 km
500 à 1000 ft
800 à 1500m
200 à 500 ft
< 800m
< 200 ft
Symboles :   Orages  Brouillard  Fortes neiges  Fortes précipitations  Vent > 20 kt
SIGMETs :   Divers  Orages  Givrage  Turbulence  Onde Orograph.  Cendres Volcan.







- Altitude de l'aérodrome : 16 ft
- Code IATA : SDR


LEXJ - Santander Cantabria

DERNIER METAR :
  • 202030Z 27006KT 240V300 9999 BKN045 OVC050 15/11 Q1025

METARs EXPIRÉS :
  • 202000Z 27010KT 240V300 9999 BKN048 OVC060 15/11 Q1025
  • 201930Z 27009KT 230V310 9999 BKN050 OVC060 15/11 Q1024
  • 201900Z 28011KT 9999 OVC060 15/11 Q1024
  • 201830Z 28012KT 250V310 9999 OVC060 15/11 Q1024
  • 201800Z 27010KT 9999 OVC062 15/11 Q1024

TAF TAF LEXJ
Valide du 20 à 21h jusqu'au 21 à 21h UTC


202000Z 2021/2121 27009KT 9999 BKN050 TX17/2115Z TN11/2105Z
TEMPO 2021/2109 28015G25KT
PROB40
TEMPO 2021/2110 3000 -RADZ BKN010
Pas de NOTAMs connus pour ce terrain.



MET'MAP, la Météo Aéronautique d'un coup d'oeil ! - Copyright ORBIFLY Décembre 2007 - Disclaimer

ORBIFLY MET'MAP TEAM :

Programmation & Développement : Alexandra Zaïnal
Conception & Développement : Baudouin d'Aumeries
Co-Programmation & Développement : Marc-Olivier Méhu
Soutien technique & logistique : Manuel Goepfert

Contact : metmap@orbifly.com




SOURCES & CREDITS :

   NOAA